Latest METARs, TAFs and NOTAMs for LIMF


---------------------------------------------------------------------------
	(OBSERVATIONS)
LIMF 230350Z 08003KT 040V130 CAVOK M01/M04 Q1017=
LIMF 230320Z 32004KT 280V010 CAVOK 00/M04 Q1017=
LIMF 230250Z 29003KT 230V340 CAVOK M00/M05 Q1016=
LIMF 230220Z VRB02KT CAVOK 00/M04 Q1016=
LIMF 230150Z VRB02KT CAVOK 00/M04 Q1016=
---------------------------------------------------------------------------
	(FC)
Sorry, FC For LIMF Not Found
---------------------------------------------------------------------------
	(TERMINAL AREA FORECAST)
LIMF 222300Z 2300/2324 VRB05KT CAVOK=
---------------------------------------------------------------------------
	(NOTAMS)


LIMF A0047/18 REF AIP AD 2 LIMF 1-2 ITEM 4 'HANDLING SERVICES
    AND FACILITIES' BOX 4 'DE-ICING FACILITIES' FLUID TYPE CHANGE
    TO READ AS FOLLOWS: CRYOTECH POLAR GUARD II TYPE II. 04 JAN
    09:00 2018 UNTIL PERM. CREATED: 04 JAN 09:00 2018

LIMF A5049/17 REF AIP AD 2 LIMF 1-9 ITEM 20 'LOCAL TRAFFIC REGULATIONS'
    BOX 3 'SPECIAL RULES FOR TAXIWAY USE' POINT 4 CHANGE TO READ:
    WHEN LANDING OPERATIONS ON RWY 36 ARE IN PROGRESS, THE USE
    OF RUNWAY HOLDING POSITION ON TWY 'F' IS FORBIDDEN AND AIRCRAFT
    CODE 'E' AND 'F' TAXIING TOWARD TWY 'G' SHALL HOLD NOT BEYOND
    INTERMEDIATE HOLDING POSITION 'G1'. 27 JUL 09:36 2017 UNTIL
    PERM. CREATED: 27 JUL 09:36 2017

LIMF A8180/17 BIELLA VOR/DME 'BLA' FREQ 116.10MHZ CH 108X AVBL
    AS FLW: - VOR RDL 312DEG NOT USABLE - DME OPR REF AIP AD
    2 LIMF 1-8. 01 DEC 09:49 2017 UNTIL 27 FEB 23:59 2018 ESTIMATED.
    CREATED: 01 DEC 09:49 2017

LIMF A8289/17 GENOVA NDB 'GEN' FREQ 318.00KHZ ON TEST, DO NOT
    USE REF AIP AD 2 LIMF 1-9. 06 DEC 17:14 2017 UNTIL 05 MAR
    23:59 2018 ESTIMATED. CREATED: 06 DEC 17:14 2017

---------------------------------------------------------------------------